Home   Weather   Germany   Lindlar   Past weeks
Flag for Germany

Past Weather in Lindlar, North Rhine-Westphalia, Germany — Yesterday and Last 2 Weeks

Currently: 48 °F. Partly sunny. (Weather station: Koeln / Bonn, Germany). See more current weather

Past Weather in Lindlar — Graph

°F

Lindlar Temperature Yesterday

Maximum temperature yesterday: 63 °F (at 2:20 pm)
Minimum temperature yesterday: 39 °F (at 6:50 am)
Average temperature yesterday: 50 °F

High & Low Weather Summary for the Past Weeks

 TemperatureHumidityPressure
High70 °F (Feb 24, 3:20 pm)100% (Feb 26, 3:50 am)30.72 "Hg (Feb 26, 3:50 am)
Low30 °F (Feb 28, 7:50 am)29% (Mar 1, 4:20 pm)29.74 "Hg (Feb 18, 6:20 pm)
Average49 °F67%30.29 "Hg
* Reported Feb 17 1:50 pm — Mar 4 1:20 pm, Lindlar. Weather by CustomWeather, © 2021

Note: Actual official high and low records may vary slightly from our data, if they occured in-between our weather recording intervals... More about our weather records

Lindlar Weather History for the Previous 24 Hours

Scroll right to see more
 ConditionsComfort  
Time TempWeatherWind HumidityBarometerVisibility
1:20 pm
Thu, Mar 4
48 °FBroken clouds.7 mph82%30.09 "HgN/A
12:50 pm48 °FBroken clouds.7 mph82%30.09 "Hg4 mi
12:20 pm48 °FBroken clouds.6 mph87%30.09 "Hg4 mi
11:50 am46 °FPartly sunny.3 mph87%30.12 "Hg4 mi
11:20 am46 °FPartly sunny.2 mph87%30.12 "Hg4 mi
10:50 am46 °FLow clouds.3 mph87%30.12 "Hg4 mi
10:20 am46 °FLight rain. Partly sunny.1 mph87%30.12 "Hg4 mi
9:50 am45 °FLight rain. Partly sunny.3 mph93%30.12 "Hg4 mi
9:20 am45 °FLight rain. Partly sunny.1 mph93%30.12 "Hg4 mi
8:50 am43 °FScattered clouds.3 mph93%30.12 "Hg6 mi
8:20 am43 °FRain. Partly sunny.2 mph93%30.12 "Hg4 mi
7:50 am43 °FRain. Partly sunny.5 mph87%30.15 "Hg5 mi
7:20 am43 °FLight rain. Passing clouds.2 mph81%30.12 "HgN/A
6:50 am41 °FLight rain. Passing clouds.3 mph87%30.12 "HgN/A
6:20 am39 °FLight rain. Passing clouds.1 mph93%30.15 "HgN/A
5:50 am39 °FLight rain. Clear.2 mph93%30.15 "HgN/A
5:20 am39 °FClear.6 mph93%30.15 "Hg10 mi
4:50 am41 °FClear.2 mph87%30.15 "Hg10 mi
4:20 am41 °FLight rain. Clear.3 mph87%30.18 "HgN/A
3:50 am39 °FClear.3 mph93%30.18 "Hg10 mi
3:20 am39 °FClear.3 mph93%30.18 "Hg10 mi
2:50 am41 °FClear.3 mph87%30.18 "Hg10 mi
2:20 am41 °FClear.2 mph87%30.21 "Hg10 mi
1:50 am41 °FClear.2 mph87%30.21 "Hg10 mi
1:20 am41 °FClear.5 mph87%30.21 "Hg10 mi
12:50 am41 °FClear.1 mph87%30.21 "Hg10 mi
12:20 am41 °FPassing clouds.3 mph87%30.24 "HgN/A
11:50 pm
Wed, Mar 3
43 °FClear.5 mph81%30.24 "Hg10 mi
11:20 pm45 °FClear.2 mph76%30.24 "Hg10 mi
10:50 pm45 °FClear.1 mph76%30.24 "Hg10 mi
10:20 pm46 °FClear.2 mph71%30.24 "Hg10 mi
9:50 pm46 °FClear.2 mph71%30.24 "Hg10 mi
9:20 pm48 °FClear.2 mph71%30.27 "Hg10 mi
8:50 pm48 °FClear.2 mph71%30.27 "Hg10 mi
8:20 pm52 °FClear.2 mph58%30.27 "Hg10 mi
7:50 pm52 °FClear.2 mph58%30.27 "Hg10 mi
7:20 pm54 °FClear.2 mph54%30.27 "Hg10 mi
6:50 pm52 °FClear.1 mph62%30.27 "Hg10 mi
6:20 pm55 °FClear.2 mph55%30.27 "Hg10 mi
5:50 pm57 °FSunny.5 mph51%30.27 "Hg10 mi
5:20 pm59 °FPassing clouds.6 mph48%30.27 "HgN/A
4:50 pm63 °FPassing clouds.3 mph39%30.27 "HgN/A
4:20 pm63 °FPassing clouds.5 mph42%30.30 "HgN/A
3:50 pm61 °FSunny.1 mph42%30.30 "Hg10 mi
3:20 pm63 °FSunny.2 mph42%30.30 "Hg10 mi
2:50 pm61 °FPassing clouds.3 mph42%30.33 "HgN/A
2:20 pm63 °FPassing clouds.6 mph39%30.33 "HgN/A
Weather by CustomWeather, © 2021

See weather overview